createdAt,value
2022-08-25T00:00:13.303Z,16.50
2022-08-25T00:02:41.442Z,16.40
2022-08-25T00:05:22.793Z,16.50
2022-08-25T00:07:51.972Z,16.40
2022-08-25T00:10:20.388Z,16.40
2022-08-25T00:12:48.249Z,16.40
2022-08-25T00:15:16.092Z,16.60
2022-08-25T00:17:43.954Z,16.70
2022-08-25T00:20:12.099Z,16.30
2022-08-25T00:22:39.928Z,16.50
2022-08-25T00:25:09.924Z,16.40
2022-08-25T00:27:37.766Z,16.30
2022-08-25T00:30:06.595Z,16.10
2022-08-25T00:32:34.462Z,16.00
2022-08-25T00:35:02.844Z,15.80
2022-08-25T00:37:30.674Z,15.70
2022-08-25T00:39:58.694Z,15.50
2022-08-25T00:42:27.991Z,15.50
2022-08-25T00:44:56.430Z,15.50
2022-08-25T00:47:24.290Z,15.70
2022-08-25T00:49:54.414Z,16.10
2022-08-25T00:52:23.683Z,16.30
2022-08-25T00:54:52.293Z,15.80
2022-08-25T00:57:34.017Z,15.50
2022-08-25T01:00:08.151Z,15.50
2022-08-25T01:02:36.032Z,15.70
2022-08-25T01:05:04.078Z,15.80
2022-08-25T01:07:33.331Z,15.70
2022-08-25T01:10:01.282Z,15.50
2022-08-25T01:12:29.140Z,15.60
2022-08-25T01:14:57.001Z,15.50
2022-08-25T01:17:28.147Z,15.40
2022-08-25T01:19:56.478Z,15.50
2022-08-25T01:22:26.737Z,15.40
2022-08-25T01:24:57.563Z,15.40
2022-08-25T01:27:25.411Z,15.50
2022-08-25T01:29:53.280Z,15.40
2022-08-25T01:32:21.134Z,15.30
2022-08-25T01:34:48.942Z,15.40
2022-08-25T01:37:20.601Z,15.20
2022-08-25T01:39:49.929Z,15.20
2022-08-25T01:42:29.219Z,15.20
2022-08-25T01:44:57.405Z,15.20
2022-08-25T01:47:25.389Z,15.10
2022-08-25T01:49:53.138Z,15.30
2022-08-25T01:52:22.100Z,15.30
2022-08-25T01:58:39.845Z,15.00
2022-08-25T02:01:08.997Z,15.10
2022-08-25T02:03:38.569Z,15.00
2022-08-25T02:06:10.731Z,15.10
2022-08-25T02:08:38.501Z,15.10
2022-08-25T02:11:06.625Z,15.00
2022-08-25T02:13:34.506Z,14.80
2022-08-25T02:16:04.065Z,14.90
2022-08-25T02:18:31.874Z,14.80
2022-08-25T02:20:59.724Z,14.80
2022-08-25T02:23:28.207Z,14.60
2022-08-25T02:25:57.213Z,14.80
2022-08-25T02:28:25.481Z,15.00
2022-08-25T02:30:58.533Z,15.00
2022-08-25T02:33:30.699Z,14.90
2022-08-25T02:35:59.730Z,15.10
2022-08-25T02:38:28.434Z,14.70
2022-08-25T02:40:56.301Z,14.60
2022-08-25T02:43:24.870Z,15.00
2022-08-25T02:45:52.738Z,14.70
2022-08-25T02:48:21.681Z,14.90
2022-08-25T02:50:51.604Z,14.90
2022-08-25T02:53:20.252Z,14.90
2022-08-25T02:55:48.437Z,14.60
2022-08-25T02:58:16.268Z,14.60
2022-08-25T03:00:44.125Z,14.50
2022-08-25T03:03:12.122Z,14.60
2022-08-25T03:05:39.973Z,15.30
2022-08-25T03:08:09.309Z,15.10
2022-08-25T03:10:37.132Z,14.80
2022-08-25T03:13:04.982Z,14.70
2022-08-25T03:15:33.015Z,14.80
2022-08-25T03:18:02.130Z,14.60
2022-08-25T03:20:31.489Z,14.60
2022-08-25T03:22:59.328Z,14.60
2022-08-25T03:25:46.092Z,14.40
2022-08-25T03:28:14.649Z,14.30
2022-08-25T03:30:42.686Z,14.40
2022-08-25T03:33:10.515Z,14.40
2022-08-25T03:35:38.339Z,14.30
2022-08-25T03:38:06.287Z,14.40
2022-08-25T03:40:35.616Z,14.20
2022-08-25T03:43:03.900Z,14.20
2022-08-25T03:45:31.851Z,14.00
2022-08-25T03:47:59.795Z,14.30
2022-08-25T03:50:27.702Z,14.10
2022-08-25T03:52:56.627Z,14.10
2022-08-25T03:55:25.026Z,13.90
2022-08-25T03:57:54.711Z,13.80
2022-08-25T04:00:22.899Z,13.70
2022-08-25T04:02:50.876Z,13.70
2022-08-25T04:05:20.189Z,13.80
2022-08-25T04:07:48.095Z,13.70
2022-08-25T04:10:15.919Z,13.80
2022-08-25T04:12:43.764Z,13.90
2022-08-25T04:15:13.161Z,14.30
2022-08-25T04:17:41.113Z,14.30
2022-08-25T04:20:10.126Z,14.10
2022-08-25T04:22:44.909Z,13.80
2022-08-25T04:25:13.098Z,13.80
2022-08-25T04:27:40.946Z,13.90
2022-08-25T04:30:09.928Z,13.80
2022-08-25T04:32:39.105Z,14.10
2022-08-25T04:35:07.812Z,14.40
2022-08-25T04:37:35.633Z,14.10
2022-08-25T04:40:04.501Z,14.20
2022-08-25T04:42:32.413Z,14.00
2022-08-25T04:45:01.889Z,14.00
2022-08-25T04:47:29.737Z,14.30
2022-08-25T04:49:58.942Z,14.20
2022-08-25T04:52:26.792Z,13.80
2022-08-25T04:54:54.651Z,13.60
2022-08-25T04:57:22.485Z,13.70
2022-08-25T04:59:50.785Z,13.60
2022-08-25T05:02:19.519Z,13.50
2022-08-25T05:04:47.375Z,13.60
2022-08-25T05:07:16.600Z,13.70
2022-08-25T05:09:44.433Z,13.80
2022-08-25T05:12:12.635Z,13.90
2022-08-25T05:14:40.478Z,14.00
2022-08-25T05:17:08.858Z,13.90
2022-08-25T05:19:37.251Z,14.10
2022-08-25T05:22:05.213Z,14.20
2022-08-25T05:24:34.392Z,14.00
2022-08-25T05:27:03.868Z,14.00
2022-08-25T05:29:31.706Z,14.00
2022-08-25T05:31:59.581Z,14.00
2022-08-25T05:34:27.452Z,14.10
2022-08-25T05:36:57.374Z,14.00
2022-08-25T05:39:26.934Z,14.00
2022-08-25T05:41:56.234Z,14.10
2022-08-25T05:44:24.059Z,14.10
2022-08-25T05:46:52.476Z,14.10
2022-08-25T05:49:20.335Z,14.10
2022-08-25T05:51:48.313Z,14.30
2022-08-25T05:54:16.212Z,14.30
2022-08-25T05:56:45.329Z,14.40
2022-08-25T05:59:14.555Z,14.50
2022-08-25T06:02:00.110Z,14.30
2022-08-25T06:04:32.154Z,14.50
2022-08-25T06:07:00.002Z,14.60
2022-08-25T06:09:27.820Z,14.70
2022-08-25T06:11:55.686Z,14.70
2022-08-25T06:14:24.908Z,14.70
2022-08-25T06:16:52.929Z,14.80
2022-08-25T06:19:23.102Z,14.90
2022-08-25T06:21:51.116Z,15.00
2022-08-25T06:24:19.563Z,15.00
2022-08-25T06:26:47.454Z,15.20
2022-08-25T06:29:15.385Z,15.40
2022-08-25T06:31:44.661Z,15.40
2022-08-25T06:34:12.640Z,15.40
2022-08-25T06:36:40.522Z,15.40
2022-08-25T06:39:08.534Z,15.50
2022-08-25T06:41:38.966Z,15.50
2022-08-25T06:44:06.987Z,15.60
2022-08-25T06:46:36.728Z,15.60
2022-08-25T06:49:06.647Z,15.70
2022-08-25T06:51:35.621Z,15.80
2022-08-25T06:54:03.543Z,15.80
2022-08-25T06:56:31.480Z,15.90
2022-08-25T06:58:59.329Z,16.00
2022-08-25T07:01:27.536Z,16.10
2022-08-25T07:03:57.408Z,16.20
2022-08-25T07:06:27.313Z,16.30
2022-08-25T07:08:55.427Z,16.50
2022-08-25T07:11:23.348Z,16.70
2022-08-25T07:13:51.469Z,16.70
2022-08-25T07:16:20.336Z,16.80
2022-08-25T07:18:48.531Z,16.90
2022-08-25T07:21:17.476Z,17.00
2022-08-25T07:23:48.923Z,17.10
2022-08-25T07:26:36.881Z,17.30
2022-08-25T07:29:06.725Z,17.40
2022-08-25T07:31:35.543Z,17.50
2022-08-25T07:34:21.336Z,17.70
2022-08-25T07:36:49.193Z,17.90
2022-08-25T07:39:18.676Z,18.00
2022-08-25T07:41:51.963Z,18.40
2022-08-25T07:44:20.398Z,18.70
2022-08-25T07:46:48.617Z,19.10
2022-08-25T07:49:23.196Z,19.70
2022-08-25T07:52:04.297Z,19.90
2022-08-25T07:54:37.683Z,20.50
2022-08-25T07:57:06.866Z,20.70
2022-08-25T07:59:39.918Z,21.30
2022-08-25T08:02:15.974Z,21.60
2022-08-25T08:04:48.370Z,22.00
2022-08-25T08:07:17.584Z,22.40
2022-08-25T08:09:48.703Z,23.10
2022-08-25T08:12:19.049Z,23.20
2022-08-25T08:14:46.955Z,23.20
2022-08-25T08:17:14.989Z,23.00
2022-08-25T08:19:45.298Z,23.00
2022-08-25T08:22:15.503Z,23.20
2022-08-25T08:24:54.892Z,23.60
2022-08-25T08:27:25.744Z,24.00
2022-08-25T08:29:53.699Z,24.30
2022-08-25T08:32:25.277Z,24.40
2022-08-25T08:35:03.452Z,24.50
2022-08-25T08:37:31.420Z,24.60
2022-08-25T08:40:01.511Z,24.70
2022-08-25T08:42:46.938Z,24.90
2022-08-25T08:45:23.596Z,25.00
2022-08-25T08:47:59.454Z,25.00
2022-08-25T08:50:33.802Z,25.10
2022-08-25T08:53:05.041Z,25.40
2022-08-25T08:55:34.509Z,25.60
2022-08-25T08:58:05.647Z,25.40
2022-08-25T09:00:34.636Z,25.60
2022-08-25T09:03:06.202Z,25.70
2022-08-25T09:05:47.377Z,25.60
2022-08-25T09:08:20.456Z,26.20
2022-08-25T09:11:00.936Z,26.70
2022-08-25T09:13:35.302Z,26.70
2022-08-25T09:16:33.873Z,27.00
2022-08-25T09:19:09.385Z,26.90
2022-08-25T09:21:40.187Z,27.10
2022-08-25T09:24:19.085Z,27.20
2022-08-25T09:26:51.364Z,27.00
2022-08-25T09:29:22.071Z,27.30
2022-08-25T09:31:50.629Z,26.90
2022-08-25T09:34:19.922Z,27.80
2022-08-25T09:36:50.760Z,27.40
2022-08-25T09:39:20.572Z,27.30
2022-08-25T09:41:51.162Z,27.30
2022-08-25T09:44:23.230Z,27.40
2022-08-25T09:47:02.002Z,27.60
2022-08-25T09:49:35.259Z,27.40
2022-08-25T09:52:33.466Z,27.70
2022-08-25T09:55:23.136Z,27.70
2022-08-25T09:57:53.013Z,27.90
2022-08-25T10:00:24.965Z,28.00
2022-08-25T10:03:06.459Z,28.30
2022-08-25T10:05:36.524Z,28.30
2022-08-25T10:08:05.765Z,28.10
2022-08-25T10:10:34.707Z,27.90
2022-08-25T10:13:03.659Z,27.70
2022-08-25T10:15:37.036Z,27.90
2022-08-25T10:18:21.116Z,28.20
2022-08-25T10:21:07.848Z,28.40
2022-08-25T10:23:36.970Z,28.70
2022-08-25T10:26:07.036Z,28.70
2022-08-25T10:28:38.429Z,28.60
2022-08-25T10:31:11.873Z,28.60
2022-08-25T10:33:45.280Z,28.60
2022-08-25T10:36:15.712Z,29.10
2022-08-25T10:38:50.722Z,28.80
2022-08-25T10:41:35.752Z,29.10
2022-08-25T10:44:31.876Z,29.40
2022-08-25T10:47:08.879Z,29.50
2022-08-25T10:49:38.677Z,29.80
2022-08-25T10:52:08.425Z,29.90
2022-08-25T10:54:40.944Z,29.40
2022-08-25T10:57:13.331Z,29.70
2022-08-25T10:59:51.009Z,29.70
2022-08-25T11:02:41.517Z,29.80
2022-08-25T11:05:11.206Z,30.00
2022-08-25T11:07:41.486Z,30.30
2022-08-25T11:10:13.383Z,30.10
2022-08-25T11:12:43.956Z,29.90
2022-08-25T11:15:14.642Z,29.90
2022-08-25T11:17:50.325Z,29.90
2022-08-25T11:20:26.791Z,29.90
2022-08-25T11:22:59.058Z,29.90
2022-08-25T11:25:30.201Z,30.10
2022-08-25T11:28:00.450Z,30.20
2022-08-25T11:30:29.011Z,29.80
2022-08-25T11:32:58.399Z,29.80
2022-08-25T11:35:29.766Z,29.80
2022-08-25T11:38:19.751Z,29.90
2022-08-25T11:40:55.603Z,29.70
2022-08-25T11:43:35.773Z,29.80
2022-08-25T11:46:15.336Z,29.90
2022-08-25T11:48:47.317Z,30.20
2022-08-25T11:51:30.837Z,30.10
2022-08-25T11:54:18.434Z,29.90
2022-08-25T11:56:57.119Z,29.90
2022-08-25T12:00:10.885Z,30.20
2022-08-25T12:02:40.690Z,30.40
2022-08-25T12:05:13.952Z,30.10
2022-08-25T12:08:22.182Z,29.90
2022-08-25T12:10:59.088Z,29.70
2022-08-25T12:13:43.799Z,30.20
2022-08-25T12:16:44.639Z,30.10
2022-08-25T12:19:30.189Z,30.00
2022-08-25T12:22:39.407Z,30.20
2022-08-25T12:25:11.610Z,30.00
2022-08-25T12:27:43.707Z,30.40
2022-08-25T12:30:18.320Z,30.00
2022-08-25T12:32:56.890Z,30.30
2022-08-25T12:35:29.550Z,30.60
2022-08-25T12:38:04.801Z,30.20
2022-08-25T12:40:35.731Z,29.90
2022-08-25T12:43:08.657Z,30.30
2022-08-25T12:45:42.343Z,30.40
2022-08-25T12:48:43.516Z,30.40
2022-08-25T12:51:17.418Z,30.10
2022-08-25T12:53:48.223Z,30.50
2022-08-25T12:56:23.347Z,30.50
2022-08-25T12:59:00.230Z,30.70
2022-08-25T13:01:36.408Z,30.70
2022-08-25T13:04:33.061Z,30.30
2022-08-25T13:07:10.567Z,30.40
2022-08-25T13:10:08.473Z,30.40
2022-08-25T13:12:38.911Z,30.20
2022-08-25T13:15:07.032Z,30.20
2022-08-25T13:17:35.726Z,30.50
2022-08-25T13:20:14.897Z,30.30
2022-08-25T13:22:45.061Z,30.40
2022-08-25T13:25:18.357Z,30.30
2022-08-25T13:27:52.459Z,30.40
2022-08-25T13:30:24.889Z,30.40
2022-08-25T13:32:53.014Z,30.40
2022-08-25T13:35:24.666Z,30.40
2022-08-25T13:37:53.627Z,30.40
2022-08-25T13:40:27.346Z,30.30
2022-08-25T13:42:57.592Z,29.90
2022-08-25T13:45:27.748Z,30.20
2022-08-25T13:47:56.370Z,30.50
2022-08-25T13:50:34.087Z,30.10
2022-08-25T13:53:03.085Z,30.00
2022-08-25T13:55:38.138Z,30.00
2022-08-25T13:58:24.951Z,30.00
2022-08-25T14:01:22.841Z,30.40
2022-08-25T14:04:01.167Z,29.80
2022-08-25T14:06:29.540Z,30.00
2022-08-25T14:09:09.457Z,29.80
2022-08-25T14:11:45.056Z,29.60
2022-08-25T14:14:14.787Z,30.00
2022-08-25T14:16:48.414Z,30.10
2022-08-25T14:19:20.363Z,29.80
2022-08-25T14:21:49.647Z,29.80
2022-08-25T14:24:22.696Z,29.90
2022-08-25T14:26:54.616Z,30.10
2022-08-25T14:29:22.740Z,29.90
2022-08-25T14:31:52.444Z,30.00
2022-08-25T14:34:24.368Z,30.00
2022-08-25T14:36:56.806Z,29.60
2022-08-25T14:39:24.826Z,29.40
2022-08-25T14:41:54.173Z,29.30
2022-08-25T14:44:22.387Z,29.30
2022-08-25T14:46:51.820Z,29.30
2022-08-25T14:49:24.830Z,28.70
2022-08-25T14:51:53.495Z,29.00
2022-08-25T14:54:21.425Z,29.00
2022-08-25T14:56:51.268Z,29.10
2022-08-25T14:59:20.570Z,29.00
2022-08-25T15:01:50.002Z,28.90
2022-08-25T15:04:20.452Z,29.00
2022-08-25T15:06:48.820Z,29.20
2022-08-25T15:09:16.524Z,29.10
2022-08-25T15:11:46.994Z,29.20
2022-08-25T15:14:16.168Z,29.50
2022-08-25T15:16:47.955Z,29.00
2022-08-25T15:19:18.037Z,29.10
2022-08-25T15:21:47.925Z,28.90
2022-08-25T15:24:17.779Z,28.90
2022-08-25T15:29:20.794Z,29.20
2022-08-25T15:31:50.062Z,29.10
2022-08-25T15:34:18.584Z,28.90
2022-08-25T15:36:47.169Z,29.00
2022-08-25T15:39:15.282Z,28.70
2022-08-25T15:41:49.286Z,28.50
2022-08-25T15:44:17.554Z,28.60
2022-08-25T15:46:47.196Z,28.50
2022-08-25T15:49:23.086Z,28.40
2022-08-25T15:51:52.712Z,28.30
2022-08-25T15:54:22.470Z,28.20
2022-08-25T15:56:50.462Z,28.20
2022-08-25T15:59:19.728Z,28.20
2022-08-25T16:01:53.748Z,28.30
2022-08-25T16:04:23.476Z,28.10
2022-08-25T16:06:51.957Z,28.00
2022-08-25T16:09:22.820Z,28.00
2022-08-25T16:11:56.249Z,27.80
2022-08-25T16:14:25.711Z,27.70
2022-08-25T16:16:53.564Z,27.80
2022-08-25T16:19:28.004Z,27.70
2022-08-25T16:21:55.856Z,27.80
2022-08-25T16:24:23.780Z,27.70
2022-08-25T16:26:51.962Z,27.70
2022-08-25T16:29:20.291Z,27.60
2022-08-25T16:31:53.347Z,27.60
2022-08-25T16:34:24.542Z,27.60
2022-08-25T16:36:54.276Z,27.70
2022-08-25T16:39:22.471Z,27.80
2022-08-25T16:41:52.160Z,27.50
2022-08-25T16:44:22.417Z,27.50
2022-08-25T16:46:54.169Z,27.50
2022-08-25T16:49:24.475Z,27.50
2022-08-25T16:51:57.437Z,27.40
2022-08-25T16:54:43.811Z,27.40
2022-08-25T16:57:12.014Z,27.30
2022-08-25T16:59:39.946Z,27.40
2022-08-25T17:02:08.442Z,27.20
2022-08-25T17:04:36.609Z,26.90
2022-08-25T17:07:06.721Z,27.00
2022-08-25T17:09:36.298Z,26.80
2022-08-25T17:12:05.579Z,26.70
2022-08-25T17:14:33.520Z,26.70
2022-08-25T17:17:01.472Z,26.80
2022-08-25T17:19:29.312Z,26.70
2022-08-25T17:21:58.514Z,26.50
2022-08-25T17:24:29.344Z,26.50
2022-08-25T17:26:59.960Z,26.50
2022-08-25T17:29:29.521Z,26.50
2022-08-25T17:31:58.478Z,26.60
2022-08-25T17:34:27.216Z,26.40
2022-08-25T17:36:55.692Z,26.40
2022-08-25T17:39:24.165Z,26.30
2022-08-25T17:41:53.455Z,26.20
2022-08-25T17:44:21.616Z,26.20
2022-08-25T17:46:50.776Z,26.10
2022-08-25T17:49:19.568Z,26.20
2022-08-25T17:51:47.457Z,26.20
2022-08-25T17:54:15.317Z,26.10
2022-08-25T17:56:43.999Z,26.10
2022-08-25T17:59:13.363Z,26.00
2022-08-25T18:01:41.282Z,25.90
2022-08-25T18:04:17.046Z,25.80
2022-08-25T18:06:46.516Z,25.70
2022-08-25T18:09:14.581Z,25.60
2022-08-25T18:11:42.765Z,25.50
2022-08-25T18:14:11.273Z,25.40
2022-08-25T18:16:40.791Z,25.30
2022-08-25T18:19:10.812Z,25.20
2022-08-25T18:21:38.719Z,25.20
2022-08-25T18:24:07.026Z,25.00
2022-08-25T18:26:34.933Z,24.70
2022-08-25T18:29:02.803Z,24.70
2022-08-25T18:31:30.682Z,24.80
2022-08-25T18:34:00.578Z,24.80
2022-08-25T18:36:28.459Z,24.70
2022-08-25T18:39:14.056Z,24.70
2022-08-25T18:41:45.187Z,24.70
2022-08-25T18:44:15.485Z,24.50
2022-08-25T18:46:45.432Z,24.40
2022-08-25T18:49:17.091Z,24.30
2022-08-25T18:51:45.890Z,24.20
2022-08-25T18:54:23.110Z,24.20
2022-08-25T18:56:52.625Z,24.10
2022-08-25T18:59:23.770Z,24.10
2022-08-25T19:01:53.046Z,24.10
2022-08-25T19:04:28.706Z,24.00
2022-08-25T19:07:01.491Z,24.00
2022-08-25T19:09:29.397Z,23.90
2022-08-25T19:11:58.511Z,23.80
2022-08-25T19:14:26.580Z,23.70
2022-08-25T19:16:54.876Z,23.50
2022-08-25T19:19:25.267Z,23.60
2022-08-25T19:21:53.116Z,23.50
2022-08-25T19:24:21.030Z,23.40
2022-08-25T19:26:53.798Z,23.30
2022-08-25T19:29:22.699Z,23.20
2022-08-25T19:31:51.108Z,23.20
2022-08-25T19:34:22.391Z,23.00
2022-08-25T19:36:52.028Z,22.90
2022-08-25T19:39:20.139Z,23.00
2022-08-25T19:41:48.982Z,22.90
2022-08-25T19:44:17.705Z,22.80
2022-08-25T19:46:46.580Z,22.70
2022-08-25T19:49:15.796Z,22.80
2022-08-25T19:51:45.612Z,22.70
2022-08-25T19:54:15.401Z,22.70
2022-08-25T19:56:55.072Z,22.70
2022-08-25T19:59:25.392Z,22.90
2022-08-25T20:01:54.059Z,22.60
2022-08-25T20:04:24.643Z,22.60
2022-08-25T20:06:52.838Z,22.60
2022-08-25T20:09:39.089Z,22.60
2022-08-25T20:12:09.195Z,22.60
2022-08-25T20:14:37.430Z,22.50
2022-08-25T20:17:13.175Z,22.60
2022-08-25T20:19:52.400Z,22.50
2022-08-25T20:22:25.003Z,22.40
2022-08-25T20:24:57.674Z,22.50
2022-08-25T20:27:27.917Z,22.30
2022-08-25T20:29:55.748Z,22.30
2022-08-25T20:32:24.477Z,22.40
2022-08-25T20:34:53.976Z,22.20
2022-08-25T20:37:23.645Z,22.10
2022-08-25T20:39:52.820Z,22.10
2022-08-25T20:42:22.152Z,22.30
2022-08-25T20:44:50.005Z,22.10
2022-08-25T20:47:20.522Z,22.10
2022-08-25T20:49:48.961Z,22.10
2022-08-25T20:52:18.507Z,22.00
2022-08-25T20:54:49.352Z,22.00
2022-08-25T20:57:18.466Z,21.90
2022-08-25T20:59:54.322Z,22.00
2022-08-25T21:02:22.242Z,21.80
2022-08-25T21:04:50.635Z,21.70
2022-08-25T21:07:18.666Z,21.70
2022-08-25T21:09:46.698Z,21.70
2022-08-25T21:12:15.297Z,21.80
2022-08-25T21:14:43.803Z,21.70
2022-08-25T21:17:13.645Z,21.70
2022-08-25T21:19:41.858Z,21.60
2022-08-25T21:22:10.805Z,21.60
2022-08-25T21:24:39.058Z,21.60
2022-08-25T21:27:07.248Z,21.50
2022-08-25T21:29:35.125Z,21.50
2022-08-25T21:32:03.403Z,21.50
2022-08-25T21:34:33.289Z,21.50
2022-08-25T21:37:01.142Z,21.50
2022-08-25T21:39:31.922Z,21.50
2022-08-25T21:42:00.489Z,21.30
2022-08-25T21:44:29.238Z,21.30
2022-08-25T21:46:57.259Z,21.30
2022-08-25T21:49:25.174Z,21.40
2022-08-25T21:52:00.433Z,21.10
2022-08-25T21:54:29.325Z,21.10
2022-08-25T21:56:59.674Z,21.20
2022-08-25T21:59:29.734Z,20.90
2022-08-25T22:01:57.814Z,20.90
2022-08-25T22:04:26.348Z,20.70
2022-08-25T22:06:55.745Z,20.80
2022-08-25T22:09:26.014Z,20.90
2022-08-25T22:11:56.253Z,20.90
2022-08-25T22:14:24.439Z,21.00
2022-08-25T22:16:54.582Z,20.90
2022-08-25T22:19:22.887Z,20.70
2022-08-25T22:21:51.201Z,20.60
2022-08-25T22:24:20.523Z,20.60
2022-08-25T22:26:49.358Z,20.60
2022-08-25T22:29:25.487Z,20.60
2022-08-25T22:31:54.003Z,20.40
2022-08-25T22:34:30.458Z,20.30
2022-08-25T22:37:01.226Z,20.30
2022-08-25T22:39:30.831Z,20.30
2022-08-25T22:41:58.676Z,20.20
2022-08-25T22:44:26.607Z,20.20
2022-08-25T22:46:54.486Z,20.10
2022-08-25T22:49:22.413Z,20.10
2022-08-25T22:51:50.863Z,20.10
2022-08-25T22:54:18.903Z,20.10
2022-08-25T22:56:48.401Z,20.10
2022-08-25T22:59:16.297Z,20.20
2022-08-25T23:01:44.310Z,20.10
2022-08-25T23:04:12.708Z,20.10
2022-08-25T23:06:40.627Z,20.00
2022-08-25T23:09:10.748Z,19.90
2022-08-25T23:11:38.878Z,19.80
2022-08-25T23:14:10.257Z,19.90
2022-08-25T23:16:38.968Z,19.90
2022-08-25T23:19:06.913Z,19.90
2022-08-25T23:21:53.025Z,20.00
2022-08-25T23:24:29.175Z,19.90
2022-08-25T23:26:58.363Z,19.90
2022-08-25T23:29:28.344Z,19.90
2022-08-25T23:31:56.430Z,19.90
2022-08-25T23:34:24.578Z,19.60
2022-08-25T23:36:52.528Z,19.70
2022-08-25T23:39:21.831Z,19.90
2022-08-25T23:41:50.314Z,19.90
2022-08-25T23:44:18.694Z,19.70
2022-08-25T23:46:48.745Z,19.70
2022-08-25T23:49:18.352Z,19.60
2022-08-25T23:51:47.057Z,19.70
2022-08-25T23:54:16.019Z,19.60
2022-08-25T23:56:52.284Z,19.50
2022-08-25T23:59:23.953Z,19.60
